Time;durP1;ratioP1;P1;durP2;ratioP2;P2;SDS_P1;SDS_P2;PMS_P1;PMS_P2;Temp;Humidity;BMP_temperature;BMP_pressure;BME280_temperature;BME280_humidity;BME280_pressure;Samples;Min_cycle;Max_cycle;Signal;HPM_P1;HPM_P2
2022/11/12 00:00:31;;;;;;;18.42;11.45;;;10.50;99.90;;;;;;5088007;28;20114;-74
2022/11/12 00:02:57;;;;;;;19.85;10.55;;;10.50;99.90;;;;;;5094880;28;20035;-73
2022/11/12 00:05:24;;;;;;;19.48;10.85;;;10.50;99.90;;;;;;5089343;28;20521;-73
2022/11/12 00:07:49;;;;;;;19.60;11.75;;;10.50;99.90;;;;;;5104950;28;20483;-73
2022/11/12 00:10:16;;;;;;;17.42;11.40;;;10.50;99.90;;;;;;5088589;28;20016;-73
2022/11/12 00:12:42;;;;;;;16.92;10.60;;;10.50;99.90;;;;;;5088597;28;20054;-73
2022/11/12 00:15:08;;;;;;;17.08;10.82;;;10.50;99.90;;;;;;5107938;27;20085;-73
2022/11/12 00:17:34;;;;;;;20.90;10.98;;;10.50;99.90;;;;;;5105547;28;20028;-73
2022/11/12 00:20:00;;;;;;;22.63;10.65;;;10.50;99.90;;;;;;5090275;28;20066;-73
2022/11/12 00:22:26;;;;;;;16.98;10.18;;;10.60;99.90;;;;;;5104714;28;20036;-73
2022/11/12 00:24:52;;;;;;;19.13;10.95;;;10.60;99.90;;;;;;5108596;28;20064;-73
2022/11/12 00:27:18;;;;;;;15.45;10.05;;;10.60;99.90;;;;;;5104545;28;20164;-73
2022/11/12 00:29:44;;;;;;;18.77;10.75;;;10.60;99.90;;;;;;5104285;28;20057;-73
2022/11/12 00:32:10;;;;;;;18.35;10.00;;;10.60;99.90;;;;;;5107888;28;20495;-73
2022/11/12 00:34:36;;;;;;;19.08;10.75;;;10.60;99.90;;;;;;5112573;28;20547;-75
2022/11/12 00:37:02;;;;;;;13.98;9.60;;;10.60;99.90;;;;;;5097534;28;20043;-73
2022/11/12 00:39:28;;;;;;;16.63;10.30;;;10.70;99.90;;;;;;5087630;28;20027;-73
2022/11/12 00:41:54;;;;;;;15.48;9.75;;;10.60;99.90;;;;;;5103998;28;20157;-73
2022/11/12 00:44:21;;;;;;;19.77;10.40;;;10.60;99.90;;;;;;5104911;28;20110;-73
2022/11/12 00:46:47;;;;;;;16.30;10.07;;;10.60;99.90;;;;;;5106443;28;20597;-74
2022/11/12 00:49:13;;;;;;;17.65;9.63;;;10.60;99.90;;;;;;5105932;28;20055;-73
2022/11/12 00:51:41;;;;;;;15.70;9.57;;;10.60;99.90;;;;;;5068858;28;20577;-73
2022/11/12 00:54:07;;;;;;;14.85;9.23;;;10.60;99.90;;;;;;5104690;28;20073;-73
2022/11/12 00:56:34;;;;;;;18.00;11.15;;;10.60;99.90;;;;;;5106642;28;20057;-74
2022/11/12 00:59:00;;;;;;;15.63;10.05;;;10.60;99.90;;;;;;5104814;27;20035;-74
2022/11/12 01:01:26;;;;;;;14.43;9.27;;;10.60;99.90;;;;;;5103717;27;20032;-72
2022/11/12 01:03:52;;;;;;;18.92;9.60;;;10.60;99.90;;;;;;5088377;28;20035;-73
2022/11/12 01:06:20;;;;;;;14.75;9.88;;;10.60;99.90;;;;;;5090071;28;20106;-73
2022/11/12 01:08:47;;;;;;;19.40;10.07;;;10.60;99.90;;;;;;5095155;28;20016;-72
2022/11/12 01:11:19;;;;;;;18.35;10.52;;;10.60;99.90;;;;;;5087409;28;20097;-72
2022/11/12 01:13:46;;;;;;;15.85;10.10;;;10.60;99.90;;;;;;5100393;28;20479;-73
2022/11/12 01:16:14;;;;;;;14.13;9.45;;;10.50;99.90;;;;;;5091878;28;20027;-73
2022/11/12 01:18:40;;;;;;;15.70;10.15;;;10.50;99.90;;;;;;5070641;28;20028;-73
2022/11/12 01:21:07;;;;;;;17.00;9.40;;;10.50;99.90;;;;;;5102727;28;20133;-73
2022/11/12 01:23:35;;;;;;;13.13;9.23;;;10.50;99.90;;;;;;5088678;28;20055;-73
2022/11/12 01:26:05;;;;;;;18.50;10.77;;;10.50;99.90;;;;;;5104361;28;20103;-74
2022/11/12 01:28:32;;;;;;;14.50;9.32;;;10.60;99.90;;;;;;5102171;28;20036;-73
2022/11/12 01:31:18;;;;;;;18.65;10.10;;;10.60;99.90;;;;;;5104533;28;20520;-73
2022/11/12 01:33:48;;;;;;;16.10;10.32;;;10.60;99.90;;;;;;5103040;27;20023;-73
2022/11/12 01:36:15;;;;;;;16.42;10.00;;;10.60;99.90;;;;;;5101474;28;20036;-73
2022/11/12 01:38:43;;;;;;;13.63;9.65;;;10.60;99.90;;;;;;5105097;28;20102;-72
2022/11/12 01:41:11;;;;;;;17.83;10.70;;;10.60;99.90;;;;;;5104494;28;20539;-73
2022/11/12 01:43:37;;;;;;;20.35;11.07;;;10.60;99.90;;;;;;5098246;28;20031;-73
2022/11/12 01:46:12;;;;;;;15.05;9.98;;;10.60;99.90;;;;;;5105763;27;20028;-74
2022/11/12 01:48:45;;;;;;;16.20;10.77;;;10.60;99.90;;;;;;5089394;28;20023;-73
2022/11/12 01:51:13;;;;;;;14.73;10.15;;;10.60;99.90;;;;;;5102066;28;20080;-73
2022/11/12 01:53:44;;;;;;;12.98;9.35;;;10.60;99.90;;;;;;5103137;28;20081;-73
2022/11/12 01:56:12;;;;;;;;;;;10.60;99.90;;;;;;5105187;28;20080;-73
2022/11/12 01:58:39;;;;;;;19.38;9.40;;;10.60;99.90;;;;;;5097443;28;19912;-73
2022/11/12 02:01:04;;;;;;;20.38;10.63;;;10.60;99.90;;;;;;5072279;28;20035;-73
2022/11/12 02:03:31;;;;;;;14.25;9.50;;;10.60;99.90;;;;;;5102911;27;20027;-73
2022/11/12 02:06:05;;;;;;;14.20;9.90;;;10.60;99.90;;;;;;5086322;28;20755;-73
2022/11/12 02:08:31;;;;;;;15.18;9.38;;;10.60;99.90;;;;;;5102373;28;20046;-75
2022/11/12 02:10:57;;;;;;;16.52;9.40;;;10.60;99.90;;;;;;5088123;28;20500;-74
2022/11/12 02:16:09;;;;;;;14.38;9.35;;;10.60;99.90;;;;;;5102159;28;20028;-73
2022/11/12 02:18:35;;;;;;;15.77;9.88;;;10.70;99.90;;;;;;5080438;28;20054;-73
2022/11/12 02:21:07;;;;;;;17.98;10.20;;;10.70;99.90;;;;;;5096196;28;20491;-73
2022/11/12 02:23:33;;;;;;;14.82;10.43;;;10.70;99.90;;;;;;5086888;28;20036;-74
2022/11/12 02:26:00;;;;;;;15.05;10.07;;;10.60;99.90;;;;;;5106091;28;20053;-74
2022/11/12 02:28:26;;;;;;;15.00;9.70;;;10.60;99.90;;;;;;5087242;28;20418;-73
2022/11/12 02:30:52;;;;;;;16.17;10.70;;;10.60;99.90;;;;;;5090027;28;20093;-74
2022/11/12 02:33:17;;;;;;;17.63;10.57;;;10.60;99.90;;;;;;5105371;28;20036;-74
2022/11/12 02:35:43;;;;;;;15.68;10.50;;;10.60;99.90;;;;;;5085928;28;20028;-73
2022/11/12 02:38:10;;;;;;;14.05;10.07;;;10.60;99.90;;;;;;5102832;28;20135;-74
2022/11/12 02:40:35;;;;;;;18.50;9.93;;;10.60;99.90;;;;;;5109375;28;20031;-73
2022/11/12 02:43:01;;;;;;;15.52;9.93;;;10.60;99.90;;;;;;5092369;28;20436;-73
2022/11/12 02:45:29;;;;;;;16.35;9.93;;;10.50;99.90;;;;;;5103146;28;20024;-75
2022/11/12 02:47:55;;;;;;;16.00;10.43;;;10.50;99.90;;;;;;5098152;28;20045;-73
2022/11/12 02:50:21;;;;;;;18.05;10.40;;;10.50;99.90;;;;;;5105392;28;20590;-73
2022/11/12 02:52:46;;;;;;;14.82;10.73;;;10.40;99.90;;;;;;5100477;28;20027;-74
2022/11/12 02:55:12;;;;;;;18.77;10.48;;;10.40;99.90;;;;;;5102930;28;20025;-73
2022/11/12 02:57:39;;;;;;;15.82;10.35;;;10.40;99.90;;;;;;5069923;28;20028;-74
2022/11/12 03:00:08;;;;;;;20.25;11.20;;;10.30;99.90;;;;;;5105458;28;20030;-73
2022/11/12 03:02:34;;;;;;;16.23;10.60;;;10.30;99.90;;;;;;5100617;28;20401;-73
2022/11/12 03:04:59;;;;;;;16.88;10.50;;;10.20;99.90;;;;;;5083161;28;20044;-75
2022/11/12 03:07:25;;;;;;;15.40;10.73;;;10.20;99.90;;;;;;5084837;28;20020;-73
2022/11/12 03:09:51;;;;;;;15.00;10.40;;;10.10;99.90;;;;;;5103802;28;20828;-73
2022/11/12 03:12:17;;;;;;;17.38;11.57;;;10.10;99.90;;;;;;5102155;28;20097;-73
2022/11/12 03:14:43;;;;;;;19.15;11.23;;;10.10;99.90;;;;;;5086799;28;20035;-73
2022/11/12 03:17:09;;;;;;;15.77;10.82;;;10.00;99.90;;;;;;5101459;28;20433;-74
2022/11/12 03:19:35;;;;;;;13.13;10.27;;;10.00;99.90;;;;;;5086213;28;20028;-73
2022/11/12 03:22:00;;;;;;;18.52;11.57;;;10.00;99.90;;;;;;5102650;28;20038;-74
2022/11/12 03:24:27;;;;;;;14.98;10.70;;;10.00;99.90;;;;;;5102638;28;20032;-73
2022/11/12 03:26:52;;;;;;;17.58;11.07;;;10.00;99.90;;;;;;5103701;28;20027;-73
2022/11/12 03:29:18;;;;;;;16.40;11.38;;;9.90;99.90;;;;;;5101869;28;20042;-73
2022/11/12 03:31:44;;;;;;;15.85;10.85;;;9.90;99.90;;;;;;5102405;28;20252;-73
2022/11/12 03:34:10;;;;;;;18.50;11.05;;;9.90;99.90;;;;;;5069871;28;20046;-73
2022/11/12 03:36:36;;;;;;;18.98;11.15;;;9.90;99.90;;;;;;5088781;28;20513;-73
2022/11/12 03:39:02;;;;;;;18.75;11.40;;;9.80;99.90;;;;;;5089834;28;20066;-73
2022/11/12 03:41:27;;;;;;;24.15;11.40;;;9.80;99.90;;;;;;5090730;28;20027;-73
2022/11/12 03:43:53;;;;;;;16.48;10.20;;;9.80;99.90;;;;;;5103478;27;20027;-73
2022/11/12 03:46:19;;;;;;;17.17;11.25;;;9.80;99.90;;;;;;5105006;28;20031;-73
2022/11/12 03:48:44;;;;;;;18.67;11.57;;;9.70;99.90;;;;;;5105375;28;20036;-73
2022/11/12 03:51:15;;;;;;;18.60;11.20;;;9.70;99.90;;;;;;5103848;28;20121;-74
2022/11/12 03:53:41;;;;;;;16.15;10.82;;;9.70;99.90;;;;;;5088461;28;20152;-73
2022/11/12 03:56:06;;;;;;;17.52;11.02;;;9.70;99.90;;;;;;5091924;28;20110;-73
2022/11/12 03:58:32;;;;;;;18.23;11.73;;;9.70;99.90;;;;;;5106017;28;20031;-74
2022/11/12 04:00:58;;;;;;;20.45;11.02;;;9.70;99.90;;;;;;5083707;28;20437;-74
2022/11/12 04:03:24;;;;;;;16.27;11.50;;;9.70;99.90;;;;;;5104485;28;20035;-74
2022/11/12 04:08:35;;;;;;;17.23;10.95;;;9.60;99.90;;;;;;5105185;28;20024;-73
2022/11/12 04:11:07;;;;;;;18.40;11.27;;;9.60;99.90;;;;;;5102642;28;20038;-73
2022/11/12 04:13:33;;;;;;;19.80;11.77;;;9.50;99.90;;;;;;5091744;28;20122;-72
2022/11/12 04:21:55;;;;;;;17.27;11.25;;;9.50;99.90;;;;;;5105194;28;20176;-73
2022/11/12 04:27:05;;;;;;;15.20;10.40;;;9.40;99.90;;;;;;5106624;28;20024;-73
2022/11/12 04:32:16;;;;;;;22.83;11.63;;;9.30;99.90;;;;;;5108255;28;20034;-73
2022/11/12 04:34:42;;;;;;;22.65;11.20;;;9.30;99.90;;;;;;5088037;28;20395;-73
2022/11/12 04:37:08;;;;;;;19.27;11.20;;;9.30;99.90;;;;;;5075236;28;20032;-73
2022/11/12 04:39:34;;;;;;;17.38;12.30;;;9.30;99.90;;;;;;5088473;28;20057;-73
2022/11/12 04:44:58;;;;;;;20.30;12.48;;;9.30;99.90;;;;;;5107861;28;20023;-73
2022/11/12 04:47:25;;;;;;;19.65;12.48;;;9.20;99.90;;;;;;5109016;28;20498;-72
2022/11/12 04:49:51;;;;;;;24.13;12.77;;;9.20;99.90;;;;;;5092467;28;20035;-73
2022/11/12 04:52:17;;;;;;;17.75;11.93;;;9.20;99.90;;;;;;5104460;28;20479;-73
2022/11/12 04:54:43;;;;;;;21.98;12.18;;;9.20;99.90;;;;;;5099519;28;20031;-74
2022/11/12 04:57:09;;;;;;;21.33;12.15;;;9.20;99.90;;;;;;5088558;28;20034;-74
2022/11/12 04:59:34;;;;;;;24.15;12.35;;;9.10;99.90;;;;;;5105748;28;20047;-75
2022/11/12 05:02:00;;;;;;;23.63;11.82;;;9.10;99.90;;;;;;5089191;28;20157;-75
2022/11/12 05:04:27;;;;;;;17.63;12.23;;;9.10;99.90;;;;;;5088598;28;20032;-74
2022/11/12 05:06:55;;;;;;;22.00;12.48;;;9.00;99.90;;;;;;5089913;28;20028;-72
2022/11/12 05:09:23;;;;;;;18.58;12.02;;;9.00;99.90;;;;;;5100988;28;20415;-72
2022/11/12 05:11:49;;;;;;;20.55;12.35;;;9.00;99.90;;;;;;5097331;27;20032;-72
2022/11/12 05:14:16;;;;;;;23.45;12.57;;;9.00;99.90;;;;;;5095692;28;20059;-74
2022/11/12 05:16:42;;;;;;;22.20;12.68;;;9.00;99.90;;;;;;5066226;28;20476;-72
2022/11/12 05:19:08;;;;;;;17.08;10.98;;;8.90;99.90;;;;;;5088577;28;20032;-73
2022/11/12 05:24:19;;;;;;;21.20;12.38;;;8.90;99.90;;;;;;5105999;28;20035;-72
2022/11/12 05:26:45;;;;;;;21.02;12.13;;;8.90;99.90;;;;;;5106460;27;20019;-72
2022/11/12 05:29:11;;;;;;;18.17;11.93;;;8.90;99.90;;;;;;5102206;28;21250;-74
2022/11/12 05:31:37;;;;;;;21.23;12.52;;;8.90;99.90;;;;;;5104955;28;20130;-73
2022/11/12 05:34:02;;;;;;;18.85;12.30;;;8.90;99.90;;;;;;5104869;28;20054;-74
2022/11/12 05:36:28;;;;;;;18.48;12.23;;;8.90;99.90;;;;;;5072491;28;20114;-74
2022/11/12 05:38:55;;;;;;;17.20;11.63;;;8.80;99.90;;;;;;5104789;28;20030;-73
2022/11/12 05:41:20;;;;;;;21.52;12.27;;;8.80;99.90;;;;;;5089376;28;20035;-73
2022/11/12 05:43:46;;;;;;;20.92;12.45;;;8.80;99.90;;;;;;5102543;28;20027;-74
2022/11/12 05:46:12;;;;;;;21.00;11.73;;;8.80;99.90;;;;;;5105951;28;20028;-74
2022/11/12 05:48:37;;;;;;;19.90;12.10;;;8.70;99.90;;;;;;5103061;28;20028;-73
2022/11/12 05:51:04;;;;;;;19.95;12.00;;;8.70;99.90;;;;;;5092341;28;20093;-73
2022/11/12 05:53:30;;;;;;;18.90;11.68;;;8.70;99.90;;;;;;5106228;28;20035;-73
2022/11/12 05:56:04;;;;;;;24.63;13.20;;;8.70;99.90;;;;;;5107644;28;20579;-74
2022/11/12 05:58:31;;;;;;;21.13;12.05;;;8.70;99.90;;;;;;5085843;28;20035;-74
2022/11/12 06:00:58;;;;;;;18.98;11.82;;;8.60;99.90;;;;;;5068761;28;20040;-74
2022/11/12 06:03:23;;;;;;;24.13;13.32;;;8.60;99.90;;;;;;5084757;28;20066;-74
2022/11/12 06:05:49;;;;;;;17.73;12.15;;;8.60;99.90;;;;;;5095507;28;20051;-73
2022/11/12 06:08:15;;;;;;;19.33;12.25;;;8.60;99.90;;;;;;5088443;28;20024;-75
2022/11/12 06:10:41;;;;;;;19.90;12.15;;;8.50;99.90;;;;;;5110894;28;20099;-73
2022/11/12 06:13:07;;;;;;;20.88;12.85;;;8.50;99.90;;;;;;5073242;28;20110;-74
2022/11/12 06:15:32;;;;;;;17.17;11.02;;;8.50;99.90;;;;;;5103179;28;20434;-74
2022/11/12 06:17:58;;;;;;;20.02;12.95;;;8.50;99.90;;;;;;5108304;28;20398;-74
2022/11/12 06:20:24;;;;;;;17.23;11.77;;;8.50;99.90;;;;;;5105309;28;20121;-73
2022/11/12 06:22:50;;;;;;;21.25;12.57;;;8.50;99.90;;;;;;5085703;28;20123;-73
2022/11/12 06:25:16;;;;;;;19.30;11.98;;;8.50;99.90;;;;;;5107324;27;20445;-73
2022/11/12 06:27:43;;;;;;;18.70;12.35;;;8.40;99.90;;;;;;5084197;28;20019;-73
2022/11/12 06:30:09;;;;;;;18.23;11.73;;;8.40;99.90;;;;;;5087589;28;20577;-72
2022/11/12 06:32:35;;;;;;;18.63;12.07;;;8.40;99.90;;;;;;5103849;28;20434;-73
2022/11/12 06:35:01;;;;;;;19.95;11.88;;;8.40;99.90;;;;;;5090062;28;20065;-74
2022/11/12 06:37:26;;;;;;;20.15;13.05;;;8.40;99.90;;;;;;5087584;28;20036;-73
2022/11/12 06:39:52;;;;;;;21.17;12.93;;;8.40;99.90;;;;;;5103413;28;20483;-73
2022/11/12 06:42:20;;;;;;;19.45;13.00;;;9.00;99.90;;;;;;5069000;28;20035;-72
2022/11/12 06:44:46;;;;;;;22.25;12.15;;;8.70;99.90;;;;;;5083984;28;20811;-75
2022/11/12 06:47:12;;;;;;;21.10;12.40;;;8.60;99.90;;;;;;5102717;28;20030;-73
2022/11/12 06:49:38;;;;;;;19.38;12.60;;;8.50;99.90;;;;;;5110628;28;20071;-73
2022/11/12 06:52:04;;;;;;;19.30;12.10;;;8.50;99.90;;;;;;5093145;28;20026;-73
2022/11/12 06:54:30;;;;;;;20.77;12.15;;;8.40;99.90;;;;;;5084587;28;20459;-73
2022/11/12 06:56:55;;;;;;;25.45;13.13;;;8.40;99.90;;;;;;5090320;28;20028;-73
2022/11/12 06:59:21;;;;;;;20.40;13.32;;;8.40;99.90;;;;;;5102654;28;20042;-73
2022/11/12 07:01:47;;;;;;;22.80;13.75;;;8.40;99.90;;;;;;5083190;28;20035;-73
2022/11/12 07:04:13;;;;;;;20.55;13.73;;;8.40;99.90;;;;;;5082899;28;20031;-73
2022/11/12 07:06:38;;;;;;;21.65;13.07;;;8.40;99.90;;;;;;5084163;28;20035;-72
2022/11/12 07:09:05;;;;;;;21.15;12.30;;;8.40;99.90;;;;;;5097632;28;20032;-73
2022/11/12 07:11:31;;;;;;;20.90;12.88;;;8.30;99.90;;;;;;5087227;28;21763;-74
2022/11/12 07:13:57;;;;;;;23.05;14.52;;;8.30;99.90;;;;;;5091739;28;20064;-74
2022/11/12 07:16:23;;;;;;;21.42;13.10;;;8.30;99.90;;;;;;5086455;28;20071;-73
2022/11/12 07:18:55;;;;;;;25.90;13.77;;;8.40;99.90;;;;;;5097095;28;20104;-73
2022/11/12 07:21:21;;;;;;;22.50;13.13;;;8.40;99.90;;;;;;5103960;27;20031;-73
2022/11/12 07:23:47;;;;;;;18.90;13.00;;;8.40;99.90;;;;;;5104083;28;20052;-79
2022/11/12 07:26:14;;;;;;;20.92;13.02;;;8.40;99.90;;;;;;5085014;28;20039;-74
2022/11/12 07:28:40;;;;;;;22.27;14.32;;;8.40;99.90;;;;;;5090066;28;20498;-73
2022/11/12 07:31:08;;;;;;;23.00;14.40;;;8.40;99.90;;;;;;5087536;28;20129;-72
2022/11/12 07:33:34;;;;;;;21.65;13.23;;;8.40;99.90;;;;;;5105342;28;20674;-72
2022/11/12 07:36:05;;;;;;;22.75;13.02;;;8.40;99.90;;;;;;5091356;28;20039;-73
2022/11/12 07:38:33;;;;;;;22.90;13.33;;;8.40;99.90;;;;;;5107430;27;20035;-73
2022/11/12 07:41:02;;;;;;;25.35;14.68;;;8.40;99.90;;;;;;5090465;28;20087;-74
2022/11/12 07:43:29;;;;;;;19.98;13.15;;;8.40;99.90;;;;;;5100621;27;20031;-74
2022/11/12 07:46:03;;;;;;;26.10;13.77;;;8.40;99.90;;;;;;5103931;27;20024;-75
2022/11/12 07:48:30;;;;;;;26.50;14.05;;;8.40;99.90;;;;;;5104799;28;20415;-73
2022/11/12 07:51:15;;;;;;;23.65;13.38;;;8.40;99.90;;;;;;5107793;28;20020;-72
2022/11/12 07:53:42;;;;;;;22.13;13.48;;;8.50;99.90;;;;;;5105583;28;20189;-73
2022/11/12 07:56:17;;;;;;;19.85;13.05;;;8.50;99.90;;;;;;5090189;28;20039;-75
2022/11/12 07:58:44;;;;;;;25.02;12.77;;;8.50;99.90;;;;;;5086701;28;20802;-73
2022/11/12 08:01:21;;;;;;;18.45;12.52;;;8.50;99.90;;;;;;5085472;28;20483;-75
2022/11/12 08:03:47;;;;;;;23.27;14.70;;;8.50;99.90;;;;;;5090652;28;20730;-72
2022/11/12 08:06:12;;;;;;;23.73;14.35;;;8.60;99.90;;;;;;5110001;28;20023;-71
2022/11/12 08:08:38;;;;;;;17.35;12.32;;;8.60;99.90;;;;;;5105816;28;20472;-73
2022/11/12 08:11:04;;;;;;;22.00;12.90;;;8.60;99.90;;;;;;5107719;28;20110;-73
2022/11/12 08:13:30;;;;;;;21.95;13.18;;;8.60;99.90;;;;;;5093354;28;20121;-75
2022/11/12 08:15:59;;;;;;;21.38;13.02;;;8.60;99.90;;;;;;5109902;27;20023;-74
2022/11/12 08:18:27;;;;;;;22.95;13.65;;;8.60;99.90;;;;;;5086492;28;20059;-74
2022/11/12 08:20:59;;;;;;;19.77;12.68;;;8.60;99.90;;;;;;5103927;28;20039;-71
2022/11/12 08:23:24;;;;;;;20.15;13.05;;;8.70;99.90;;;;;;5091883;28;20066;-73
2022/11/12 08:25:50;;;;;;;25.83;13.48;;;8.70;99.90;;;;;;5102216;28;20051;-73
2022/11/12 08:28:16;;;;;;;18.80;12.75;;;8.70;99.90;;;;;;5074866;28;20111;-74
2022/11/12 08:30:41;;;;;;;20.20;12.15;;;8.70;99.90;;;;;;5102590;28;20016;-72
2022/11/12 08:33:07;;;;;;;23.13;13.02;;;8.80;99.90;;;;;;5103702;28;20399;-76
2022/11/12 08:35:36;;;;;;;21.50;13.35;;;8.80;99.90;;;;;;5100452;28;20158;-76
2022/11/12 08:38:05;;;;;;;19.63;13.10;;;8.80;99.90;;;;;;5086176;28;20506;-73
2022/11/12 08:40:32;;;;;;;24.80;14.65;;;8.90;99.90;;;;;;5105226;28;20475;-73
2022/11/12 08:43:00;;;;;;;22.88;13.57;;;8.90;99.90;;;;;;5103275;27;20487;-74
2022/11/12 08:45:26;;;;;;;21.80;13.48;;;8.90;99.90;;;;;;5086918;28;20379;-74
2022/11/12 08:47:52;;;;;;;20.23;13.25;;;8.90;99.90;;;;;;5104264;28;20055;-73
2022/11/12 08:50:18;;;;;;;18.20;12.63;;;8.90;99.90;;;;;;5106018;27;20482;-72
2022/11/12 08:52:44;;;;;;;22.70;13.77;;;9.00;99.90;;;;;;5103907;28;20391;-73
2022/11/12 08:55:10;;;;;;;21.33;13.40;;;9.00;99.90;;;;;;5088016;27;20035;-74
2022/11/12 08:57:42;;;;;;;20.67;13.30;;;9.00;99.90;;;;;;5108743;28;20032;-74
2022/11/12 09:00:12;;;;;;;28.13;13.63;;;9.00;99.90;;;;;;5083853;28;20034;-73
2022/11/12 09:02:38;;;;;;;19.08;11.95;;;9.00;99.90;;;;;;5083114;28;20495;-72
2022/11/12 09:05:04;;;;;;;21.15;13.73;;;9.10;99.90;;;;;;5084648;28;20073;-72
2022/11/12 09:07:30;;;;;;;17.98;11.63;;;9.10;99.90;;;;;;5086374;28;20174;-73
2022/11/12 09:09:57;;;;;;;19.58;13.18;;;9.10;99.90;;;;;;5091099;27;20043;-72
2022/11/12 09:12:23;;;;;;;21.98;13.30;;;9.20;99.90;;;;;;5080912;28;20028;-72
2022/11/12 09:14:48;;;;;;;23.70;14.30;;;9.20;99.90;;;;;;5092233;27;20035;-73
2022/11/12 09:17:14;;;;;;;18.60;12.85;;;9.20;99.90;;;;;;5106988;28;20038;-73
2022/11/12 09:19:41;;;;;;;22.52;13.93;;;9.20;99.90;;;;;;5104333;28;20027;-73
2022/11/12 09:22:08;;;;;;;20.60;13.68;;;9.20;99.90;;;;;;5105127;28;20422;-73
2022/11/12 09:24:33;;;;;;;19.05;12.93;;;9.20;99.90;;;;;;5099557;28;20084;-75
2022/11/12 09:26:59;;;;;;;19.98;12.55;;;9.30;99.90;;;;;;5085554;28;20035;-74
2022/11/12 09:29:25;;;;;;;20.02;12.40;;;9.20;99.90;;;;;;5079480;28;20605;-73
2022/11/12 09:31:51;;;;;;;20.25;13.57;;;9.30;99.90;;;;;;5097895;28;20109;-72
2022/11/12 09:34:16;;;;;;;24.08;13.43;;;9.30;99.90;;;;;;5096515;28;20593;-73
2022/11/12 09:36:42;;;;;;;20.27;12.57;;;9.30;99.90;;;;;;5092090;28;20036;-75
2022/11/12 09:39:08;;;;;;;21.17;13.60;;;9.30;99.90;;;;;;5099926;27;20415;-72
2022/11/12 09:41:36;;;;;;;22.65;13.50;;;9.40;99.90;;;;;;5104640;28;20039;-73
2022/11/12 09:44:11;;;;;;;18.17;12.00;;;9.40;99.90;;;;;;5083640;28;20419;-74
2022/11/12 09:46:39;;;;;;;16.55;11.25;;;9.40;99.90;;;;;;5103297;28;20384;-73
2022/11/12 09:49:10;;;;;;;24.55;12.43;;;9.40;99.90;;;;;;5078463;28;20062;-73
2022/11/12 09:51:41;;;;;;;19.38;11.80;;;9.40;99.90;;;;;;5093403;28;21174;-72
2022/11/12 09:54:25;;;;;;;25.38;14.93;;;9.40;99.90;;;;;;5103151;28;20518;-72
2022/11/12 09:56:52;;;;;;;17.55;11.52;;;9.50;99.90;;;;;;5082781;28;20569;-74
2022/11/12 09:59:21;;;;;;;24.10;13.85;;;10.50;99.90;;;;;;5087447;28;20642;-73
2022/11/12 10:02:22;;;;;;;18.67;12.85;;;10.20;99.90;;;;;;5096956;28;20036;-73
2022/11/12 10:05:15;;;;;;;21.65;12.63;;;10.00;99.90;;;;;;5078960;28;20169;-75
2022/11/12 10:08:16;;;;;;;19.20;12.25;;;9.90;99.90;;;;;;5092711;27;20031;-72
2022/11/12 10:10:57;;;;;;;20.13;13.15;;;9.80;99.90;;;;;;5024782;28;20039;-74
2022/11/12 10:13:43;;;;;;;21.33;11.70;;;9.80;99.90;;;;;;5079305;28;20044;-73
2022/11/12 10:16:41;;;;;;;18.92;12.35;;;10.00;99.90;;;;;;5104355;27;20479;-74
2022/11/12 10:19:25;;;;;;;20.50;12.77;;;9.90;99.90;;;;;;5079409;28;20032;-74
2022/11/12 10:22:14;;;;;;;19.33;13.98;;;9.90;99.90;;;;;;5098868;28;20042;-74
2022/11/12 10:24:41;;;;;;;24.20;11.77;;;9.90;99.90;;;;;;5034918;28;20399;-73
2022/11/12 10:27:37;;;;;;;18.42;12.32;;;10.10;99.90;;;;;;5083805;28;20582;-73
2022/11/12 10:30:19;;;;;;;17.23;12.85;;;10.00;99.90;;;;;;5101811;28;20050;-74
2022/11/12 10:32:47;;;;;;;20.20;12.95;;;10.00;99.90;;;;;;5073586;28;20112;-75
2022/11/12 10:35:16;;;;;;;21.85;13.52;;;10.10;99.90;;;;;;5101192;28;20444;-73
2022/11/12 10:38:03;;;;;;;18.88;12.85;;;10.10;99.90;;;;;;5081722;28;20040;-72
2022/11/12 10:40:37;;;;;;;21.67;13.35;;;10.10;99.90;;;;;;5102898;28;20034;-75
2022/11/12 10:43:15;;;;;;;25.67;15.13;;;10.10;99.90;;;;;;5102400;28;20510;-73
2022/11/12 10:45:42;;;;;;;23.13;14.77;;;10.10;99.90;;;;;;5102433;28;20024;-75
2022/11/12 10:48:24;;;;;;;22.25;14.48;;;10.10;99.90;;;;;;5091797;28;20383;-72
2022/11/12 10:50:50;;;;;;;27.55;15.57;;;10.20;99.90;;;;;;5103789;28;20024;-75
2022/11/12 10:53:34;;;;;;;22.88;15.18;;;10.20;99.90;;;;;;5086609;28;20553;-73
2022/11/12 10:56:03;;;;;;;24.27;15.60;;;10.30;99.90;;;;;;5088932;28;20028;-72
2022/11/12 10:58:28;;;;;;;23.42;15.02;;;10.40;99.90;;;;;;5106365;28;20480;-72
2022/11/12 11:01:02;;;;;;;23.77;15.10;;;10.40;99.90;;;;;;5108194;28;20035;-72
2022/11/12 11:03:28;;;;;;;19.98;13.52;;;10.50;99.90;;;;;;5108065;28;20042;-72
2022/11/12 11:05:59;;;;;;;22.23;13.13;;;10.50;99.90;;;;;;5109574;28;20027;-73
2022/11/12 11:08:31;;;;;;;19.98;13.20;;;10.60;99.90;;;;;;5105157;28;20020;-72
2022/11/12 11:11:15;;;;;;;21.42;13.80;;;10.70;99.90;;;;;;5095586;28;20393;-72
2022/11/12 11:13:42;;;;;;;22.17;13.63;;;10.70;99.90;;;;;;5088838;28;20051;-73
2022/11/12 11:16:19;;;;;;;18.90;13.25;;;10.80;99.90;;;;;;5106702;28;20028;-73
2022/11/12 11:18:49;;;;;;;16.35;11.80;;;10.80;99.90;;;;;;5086001;28;20514;-73
2022/11/12 11:21:29;;;;;;;21.40;12.70;;;10.80;99.90;;;;;;5103478;28;20446;-73
2022/11/12 11:24:10;;;;;;;22.58;13.00;;;10.90;99.90;;;;;;5103377;28;20444;-72
2022/11/12 11:27:03;;;;;;;20.92;12.77;;;10.90;99.90;;;;;;5085112;28;20532;-73
2022/11/12 11:29:58;;;;;;;17.15;11.30;;;11.00;99.90;;;;;;5084866;28;20027;-73
2022/11/12 11:32:55;;;;;;;15.15;10.50;;;11.10;99.90;;;;;;5104124;28;20031;-73
2022/11/12 11:35:39;;;;;;;16.65;10.77;;;11.20;99.90;;;;;;5097658;28;20529;-73
2022/11/12 11:38:20;;;;;;;19.38;10.77;;;11.30;99.90;;;;;;5102127;27;20028;-72
2022/11/12 11:40:46;;;;;;;18.75;11.05;;;11.30;99.90;;;;;;5102424;28;20016;-73
2022/11/12 11:43:33;;;;;;;18.05;10.93;;;11.50;99.90;;;;;;5085492;28;20030;-72
2022/11/12 11:45:59;;;;;;;16.90;10.43;;;11.60;99.90;;;;;;5104835;28;20024;-73
2022/11/12 11:49:09;;;;;;;14.35;10.48;;;11.70;99.90;;;;;;5087854;28;20022;-73
2022/11/12 11:51:53;;;;;;;18.77;10.43;;;11.80;99.90;;;;;;5107023;28;20032;-72
2022/11/12 11:54:37;;;;;;;15.68;9.68;;;11.80;99.90;;;;;;5089138;28;20495;-72
2022/11/12 11:57:11;;;;;;;16.52;10.40;;;11.80;99.90;;;;;;5089737;28;20027;-73
2022/11/12 11:59:55;;;;;;;14.57;9.82;;;11.80;99.90;;;;;;5103930;27;20024;-72
2022/11/12 12:02:30;;;;;;;13.60;9.45;;;11.90;99.90;;;;;;5107072;27;20024;-71
2022/11/12 12:05:22;;;;;;;14.85;9.23;;;11.90;99.90;;;;;;5105730;28;20521;-73
2022/11/12 12:08:02;;;;;;;13.20;9.15;;;12.00;99.90;;;;;;5072331;28;20066;-72
2022/11/12 12:10:41;;;;;;;13.90;9.17;;;12.00;99.90;;;;;;5102490;28;20102;-74
2022/11/12 12:13:46;;;;;;;12.10;7.75;;;12.00;99.90;;;;;;5078764;28;20047;-72
2022/11/12 12:16:25;;;;;;;11.38;7.95;;;12.00;99.90;;;;;;5087952;28;20043;-75
2022/11/12 12:19:09;;;;;;;12.75;8.20;;;11.90;99.90;;;;;;5085712;28;20047;-74
2022/11/12 12:21:38;;;;;;;12.13;7.78;;;11.80;99.90;;;;;;5069231;28;20118;-74
2022/11/12 12:24:17;;;;;;;12.65;8.23;;;11.80;99.90;;;;;;5089020;28;20024;-73
2022/11/12 12:26:51;;;;;;;10.25;7.32;;;11.80;99.90;;;;;;5100591;28;20138;-74
2022/11/12 12:29:56;;;;;;;13.88;9.38;;;11.80;99.90;;;;;;5099108;28;20503;-74
2022/11/12 12:32:39;;;;;;;12.70;8.98;;;11.90;99.90;;;;;;5042001;28;20056;-71
2022/11/12 12:35:13;;;;;;;13.18;7.93;;;11.90;99.90;;;;;;5040200;28;20474;-72
2022/11/12 12:37:51;;;;;;;13.57;8.20;;;12.00;99.90;;;;;;5044780;28;20033;-74
2022/11/12 12:40:23;;;;;;;13.98;8.43;;;12.10;99.90;;;;;;5041144;28;20987;-71
2022/11/12 12:43:13;;;;;;;13.35;9.18;;;12.10;99.90;;;;;;5021908;28;20629;-72
2022/11/12 12:45:40;;;;;;;12.48;8.00;;;12.20;99.90;;;;;;5040738;28;20036;-72
2022/11/12 12:48:23;;;;;;;12.55;8.80;;;12.20;99.90;;;;;;5039023;28;20060;-72
2022/11/12 12:50:50;;;;;;;13.20;9.32;;;12.20;99.90;;;;;;5040043;28;20704;-72
2022/11/12 12:53:24;;;;;;;13.88;9.13;;;12.30;99.90;;;;;;5040485;28;20041;-73
2022/11/12 12:55:51;;;;;;;12.70;8.70;;;12.30;99.90;;;;;;5027624;28;20112;-72
2022/11/12 12:58:17;;;;;;;14.20;9.18;;;12.30;99.90;;;;;;5040537;28;20037;-74
2022/11/12 13:00:50;;;;;;;13.93;8.68;;;12.30;99.90;;;;;;5037592;28;20045;-73
2022/11/12 13:03:43;;;;;;;15.93;9.43;;;12.30;99.90;;;;;;5043554;28;20112;-73
2022/11/12 13:06:23;;;;;;;9.23;7.03;;;12.30;99.90;;;;;;5055161;28;20461;-71
2022/11/12 13:08:58;;;;;;;11.63;7.35;;;12.20;99.90;;;;;;5105714;28;20015;-72